Time;durP1;ratioP1;P1;durP2;ratioP2;P2;SDS_P1;SDS_P2;PMS_P1;PMS_P2;Temp;Humidity;BMP_temperature;BMP_pressure;BME280_temperature;BME280_humidity;BME280_pressure;Samples;Min_cycle;Max_cycle;Signal;HPM_P1;HPM_P2
2021/04/21 00:02:20;;;;;;;5.37;3.70;;;12.20;92.30;;;;;;5030631;28;20459;-70
2021/04/21 00:04:49;;;;;;;5.07;4.00;;;12.10;92.50;;;;;;5030200;28;20475;-69
2021/04/21 00:07:20;;;;;;;4.70;4.10;;;12.20;92.50;;;;;;5023629;28;20447;-69
2021/04/21 00:09:47;;;;;;;7.13;3.73;;;12.10;92.60;;;;;;5028252;28;20459;-69
2021/04/21 00:12:15;;;;;;;4.73;3.57;;;12.10;92.60;;;;;;5038906;28;20466;-69
2021/04/21 00:14:41;;;;;;;5.73;4.20;;;12.10;92.50;;;;;;5029994;28;20462;-72
2021/04/21 00:17:08;;;;;;;5.53;3.57;;;12.20;92.40;;;;;;5033479;28;20458;-69
2021/04/21 00:19:36;;;;;;;5.00;3.60;;;12.20;92.40;;;;;;5049670;28;20224;-69
2021/04/21 00:22:04;;;;;;;4.63;3.90;;;12.10;92.30;;;;;;5027463;28;20549;-69
2021/04/21 00:24:32;;;;;;;3.93;3.30;;;12.10;92.10;;;;;;5026597;28;21009;-69
2021/04/21 00:26:59;;;;;;;6.53;4.37;;;12.10;92.20;;;;;;5050005;28;20458;-69
2021/04/21 00:29:27;;;;;;;5.00;3.63;;;12.10;92.20;;;;;;5051856;28;20823;-69
2021/04/21 00:31:55;;;;;;;5.43;4.10;;;12.10;92.30;;;;;;5044299;28;20450;-70
2021/04/21 00:34:23;;;;;;;5.63;3.70;;;12.10;92.30;;;;;;5010815;28;20454;-69
2021/04/21 00:36:51;;;;;;;6.87;4.43;;;12.00;92.10;;;;;;5026737;28;20461;-71
2021/04/21 00:39:19;;;;;;;4.87;3.80;;;11.90;92.10;;;;;;5026222;28;20520;-69
2021/04/21 00:42:19;;;;;;;7.10;4.13;;;11.90;92.40;;;;;;5039663;28;20463;-70
2021/04/21 00:44:45;;;;;;;5.50;4.53;;;11.90;92.30;;;;;;5015540;28;20841;-71
2021/04/21 00:47:18;;;;;;;4.60;3.70;;;11.90;92.40;;;;;;5025563;28;20791;-71
2021/04/21 00:50:11;;;;;;;6.43;3.70;;;11.70;92.30;;;;;;5028554;28;20286;-71
2021/04/21 00:53:02;;;;;;;4.43;3.90;;;11.70;92.30;;;;;;5055027;28;20511;-71
2021/04/21 00:55:36;;;;;;;5.10;3.73;;;11.70;92.50;;;;;;5016544;28;20882;-71
2021/04/21 00:58:23;;;;;;;4.70;4.00;;;11.60;92.50;;;;;;5047814;28;20461;-71
2021/04/21 01:00:50;;;;;;;4.37;3.40;;;11.60;92.50;;;;;;5046276;28;20525;-71
2021/04/21 01:03:23;;;;;;;6.00;4.30;;;11.50;92.90;;;;;;5017863;28;20447;-71
2021/04/21 01:05:51;;;;;;;4.90;3.77;;;11.40;92.60;;;;;;5048350;28;20462;-71
2021/04/21 01:08:22;;;;;;;5.93;3.90;;;11.50;92.60;;;;;;5049692;28;20473;-71
2021/04/21 01:10:56;;;;;;;3.70;3.33;;;11.50;92.50;;;;;;5026465;28;20578;-70
2021/04/21 01:13:28;;;;;;;5.60;4.17;;;11.50;92.50;;;;;;5033721;28;20451;-71
2021/04/21 01:15:56;;;;;;;5.17;3.73;;;11.50;92.50;;;;;;5036606;28;20482;-71
2021/04/21 01:18:24;;;;;;;4.27;3.70;;;11.50;92.50;;;;;;5049858;28;20466;-72
2021/04/21 01:21:02;;;;;;;6.30;3.80;;;11.50;92.50;;;;;;5018157;28;20439;-71
2021/04/21 01:23:31;;;;;;;4.87;3.47;;;11.50;92.60;;;;;;5033836;28;20457;-70
2021/04/21 01:26:06;;;;;;;5.27;3.83;;;11.50;92.50;;;;;;5049282;28;20458;-71
2021/04/21 01:28:33;;;;;;;5.00;4.13;;;11.50;92.60;;;;;;5031274;28;20503;-72
2021/04/21 01:31:01;;;;;;;4.90;4.03;;;11.50;92.50;;;;;;5051330;28;20454;-71
2021/04/21 01:33:28;;;;;;;6.20;3.80;;;11.40;92.30;;;;;;5049962;28;20511;-71
2021/04/21 01:36:03;;;;;;;6.40;3.80;;;11.40;92.40;;;;;;5045889;28;20498;-72
2021/04/21 01:38:31;;;;;;;5.13;3.17;;;11.40;92.90;;;;;;5050416;28;20477;-74
2021/04/21 01:41:01;;;;;;;6.00;4.20;;;11.40;92.50;;;;;;5018457;28;20459;-71
2021/04/21 01:43:34;;;;;;;4.77;3.80;;;11.40;92.60;;;;;;5034819;28;20447;-71
2021/04/21 01:46:02;;;;;;;4.03;3.40;;;11.40;92.60;;;;;;5033544;28;20462;-70
2021/04/21 01:48:31;;;;;;;4.57;3.60;;;11.30;92.50;;;;;;5031149;28;20508;-71
2021/04/21 01:51:01;;;;;;;5.00;3.80;;;11.30;92.50;;;;;;5031524;28;20992;-72
2021/04/21 01:53:41;;;;;;;6.43;4.60;;;11.20;92.40;;;;;;5050541;28;20864;-71
2021/04/21 01:56:20;;;;;;;4.00;3.47;;;11.20;92.50;;;;;;5043373;28;20521;-71
2021/04/21 01:58:52;;;;;;;6.27;3.37;;;11.20;92.60;;;;;;5049308;28;20457;-71
2021/04/21 02:01:36;;;;;;;4.47;3.33;;;11.20;92.70;;;;;;5033809;28;20447;-71
2021/04/21 02:04:40;;;;;;;5.53;4.10;;;11.20;92.70;;;;;;5051692;28;20481;-71
2021/04/21 02:07:15;;;;;;;4.83;3.87;;;11.20;92.60;;;;;;5009102;28;20819;-71
2021/04/21 02:10:10;;;;;;;5.67;3.63;;;11.10;92.50;;;;;;5033207;28;20442;-71
2021/04/21 02:12:38;;;;;;;5.20;4.33;;;11.00;92.50;;;;;;5033214;28;20473;-71
2021/04/21 02:15:33;;;;;;;5.97;4.00;;;11.00;92.60;;;;;;5029743;28;20466;-72
2021/04/21 02:18:18;;;;;;;4.33;3.80;;;10.80;92.60;;;;;;5027157;28;21010;-71
2021/04/21 02:21:01;;;;;;;8.37;3.50;;;10.80;92.80;;;;;;5049317;28;20530;-72
2021/04/21 02:23:31;;;;;;;3.90;3.50;;;10.90;92.90;;;;;;5051270;28;20461;-71
2021/04/21 02:26:24;;;;;;;4.77;3.93;;;10.90;92.90;;;;;;5034107;28;20462;-71
2021/04/21 02:29:03;;;;;;;4.13;3.23;;;10.90;92.90;;;;;;5033189;28;20459;-72
2021/04/21 02:31:42;;;;;;;9.50;3.83;;;10.90;92.90;;;;;;5049164;28;20477;-71
2021/04/21 02:34:15;;;;;;;4.10;3.30;;;10.90;92.80;;;;;;5050391;28;20542;-71
2021/04/21 02:36:44;;;;;;;7.67;4.30;;;10.90;92.80;;;;;;5041040;28;20459;-71
2021/04/21 02:39:21;;;;;;;5.53;4.20;;;10.90;92.90;;;;;;5049920;28;20458;-71
2021/04/21 02:42:03;;;;;;;5.60;3.90;;;10.80;92.70;;;;;;5017431;28;20460;-72
2021/04/21 02:44:53;;;;;;;7.70;4.17;;;10.80;92.60;;;;;;5022541;28;20851;-71
2021/04/21 02:47:38;;;;;;;9.00;4.07;;;10.70;92.60;;;;;;5050682;28;20507;-74
2021/04/21 02:50:10;;;;;;;5.70;3.77;;;10.70;92.70;;;;;;5033207;28;20841;-71
2021/04/21 02:52:50;;;;;;;8.03;4.60;;;10.70;92.70;;;;;;5044691;28;20529;-71
2021/04/21 02:55:48;;;;;;;6.23;4.30;;;10.70;92.80;;;;;;5047809;28;20547;-71
2021/04/21 02:58:35;;;;;;;5.20;4.40;;;10.70;92.90;;;;;;5031188;28;20481;-71
2021/04/21 03:01:06;;;;;;;7.13;4.57;;;10.60;92.90;;;;;;5049105;28;20477;-71
2021/04/21 03:04:13;;;;;;;5.50;3.70;;;10.60;92.80;;;;;;5029212;28;20455;-71
2021/04/21 03:06:44;;;;;;;4.23;3.70;;;10.60;92.80;;;;;;5047581;28;20460;-71
2021/04/21 03:09:14;;;;;;;4.87;4.33;;;10.60;92.90;;;;;;5032892;28;20450;-70
2021/04/21 03:11:42;;;;;;;7.63;3.67;;;10.60;92.90;;;;;;5032524;28;20449;-71
2021/04/21 03:14:18;;;;;;;5.50;3.80;;;10.60;92.90;;;;;;5015828;28;20977;-72
2021/04/21 03:16:52;;;;;;;4.40;3.33;;;10.50;92.80;;;;;;5048116;28;20480;-71
2021/04/21 03:19:23;;;;;;;6.63;3.50;;;10.50;92.80;;;;;;5049940;28;20479;-71
2021/04/21 03:21:55;;;;;;;3.70;3.00;;;10.50;92.90;;;;;;5030649;28;21003;-71
2021/04/21 03:24:26;;;;;;;5.37;3.13;;;10.50;92.90;;;;;;5012134;28;20845;-71
2021/04/21 03:26:56;;;;;;;4.80;3.30;;;10.40;93.20;;;;;;5018529;28;20455;-71
2021/04/21 03:29:29;;;;;;;4.60;3.83;;;10.40;92.70;;;;;;4998841;28;20557;-71
2021/04/21 03:31:59;;;;;;;5.67;4.20;;;10.30;92.60;;;;;;5041813;28;20447;-71
2021/04/21 03:34:27;;;;;;;5.90;4.10;;;10.30;92.70;;;;;;5048508;28;20457;-71
2021/04/21 03:36:53;;;;;;;4.50;4.10;;;10.20;92.70;;;;;;5049263;28;20470;-73
2021/04/21 03:39:19;;;;;;;5.77;3.77;;;10.20;92.90;;;;;;5043636;28;20462;-71
2021/04/21 03:41:45;;;;;;;6.87;4.20;;;10.20;93.00;;;;;;5050244;28;21038;-71
2021/04/21 03:44:12;;;;;;;7.20;4.70;;;10.20;93.00;;;;;;5049233;28;20474;-71
2021/04/21 03:46:38;;;;;;;6.30;4.57;;;10.20;92.90;;;;;;5033824;28;20207;-71
2021/04/21 03:49:07;;;;;;;4.90;3.63;;;10.20;93.00;;;;;;5032101;28;20456;-71
2021/04/21 03:51:35;;;;;;;4.63;3.70;;;10.20;92.90;;;;;;5015100;28;20481;-71
2021/04/21 03:54:02;;;;;;;6.23;4.30;;;10.10;92.90;;;;;;5015791;28;20458;-70
2021/04/21 03:56:29;;;;;;;7.53;4.33;;;10.10;92.80;;;;;;5014868;28;20486;-71
2021/04/21 03:58:56;;;;;;;6.93;4.00;;;10.10;93.00;;;;;;5032060;28;21004;-71
2021/04/21 04:01:24;;;;;;;6.00;4.47;;;10.00;92.90;;;;;;5031218;28;20462;-71
2021/04/21 04:03:58;;;;;;;5.90;4.70;;;10.00;92.90;;;;;;5020717;28;20449;-71
2021/04/21 04:06:33;;;;;;;6.97;4.93;;;10.00;93.00;;;;;;5020830;28;20458;-72
2021/04/21 04:09:08;;;;;;;5.57;4.57;;;10.00;93.00;;;;;;5022679;28;20970;-71
2021/04/21 04:11:47;;;;;;;6.57;3.93;;;9.90;93.70;;;;;;5028587;28;20445;-71
2021/04/21 04:14:22;;;;;;;5.70;4.00;;;9.90;93.70;;;;;;5031091;28;20459;-71
2021/04/21 04:16:53;;;;;;;5.43;4.30;;;9.90;93.70;;;;;;5015436;28;20437;-71
2021/04/21 04:19:20;;;;;;;5.83;4.03;;;9.80;93.60;;;;;;5049036;28;20481;-70
2021/04/21 04:21:54;;;;;;;5.40;4.13;;;9.70;93.60;;;;;;5048400;28;20886;-71
2021/04/21 04:24:22;;;;;;;5.90;4.30;;;9.60;93.70;;;;;;5047445;28;20549;-71
2021/04/21 04:26:49;;;;;;;10.97;7.97;;;9.60;93.80;;;;;;5023356;28;20454;-71
2021/04/21 04:29:15;;;;;;;10.90;6.80;;;9.60;93.80;;;;;;5047670;28;20451;-71
2021/04/21 04:31:41;;;;;;;9.30;6.40;;;9.60;93.90;;;;;;5048507;28;20965;-73
2021/04/21 04:34:08;;;;;;;11.43;7.30;;;9.60;93.90;;;;;;5048011;28;20450;-70
2021/04/21 04:36:39;;;;;;;10.60;7.77;;;9.60;93.90;;;;;;5049186;28;20541;-71
2021/04/21 04:39:06;;;;;;;13.90;8.73;;;9.60;94.00;;;;;;5052068;28;20546;-71
2021/04/21 04:41:32;;;;;;;11.50;7.67;;;9.60;94.00;;;;;;5034697;28;20450;-71
2021/04/21 04:44:00;;;;;;;8.37;5.27;;;9.60;94.10;;;;;;5035697;28;20446;-72
2021/04/21 04:46:36;;;;;;;7.77;5.00;;;9.50;94.30;;;;;;5051289;28;20883;-72
2021/04/21 04:49:08;;;;;;;7.60;4.60;;;9.50;94.10;;;;;;5051728;28;20450;-72
2021/04/21 04:51:37;;;;;;;9.60;6.53;;;9.50;94.40;;;;;;5051154;28;20528;-71
2021/04/21 04:54:04;;;;;;;7.00;5.23;;;9.60;94.10;;;;;;5050106;28;20871;-71
2021/04/21 04:56:33;;;;;;;9.23;5.50;;;9.50;94.00;;;;;;5032207;28;20447;-71
2021/04/21 04:59:04;;;;;;;7.00;4.67;;;9.50;94.00;;;;;;5034465;28;20480;-71
2021/04/21 05:01:42;;;;;;;5.93;4.73;;;9.50;94.00;;;;;;5034069;28;20453;-71
2021/04/21 05:04:13;;;;;;;7.13;5.00;;;9.50;94.10;;;;;;5029252;28;20478;-71
2021/04/21 05:06:48;;;;;;;7.40;4.73;;;9.50;94.40;;;;;;5016493;28;20446;-70
2021/04/21 05:09:17;;;;;;;11.73;6.27;;;9.50;94.40;;;;;;5049937;28;20973;-71
2021/04/21 05:11:46;;;;;;;8.97;6.20;;;9.50;94.10;;;;;;5050711;28;20438;-71
2021/04/21 05:14:16;;;;;;;7.77;4.93;;;9.50;94.20;;;;;;5031578;28;20459;-71
2021/04/21 05:16:57;;;;;;;11.73;6.40;;;9.50;94.20;;;;;;5050033;28;20457;-72
2021/04/21 05:19:25;;;;;;;9.53;6.30;;;9.50;94.30;;;;;;5034490;28;20964;-71
2021/04/21 05:22:31;;;;;;;16.77;8.47;;;9.50;94.40;;;;;;5051601;28;20469;-71
2021/04/21 05:25:15;;;;;;;12.00;6.93;;;9.50;94.40;;;;;;5027661;28;20466;-71
2021/04/21 05:28:05;;;;;;;15.20;8.30;;;9.50;94.50;;;;;;5035143;28;20484;-71
2021/04/21 05:30:55;;;;;;;9.63;7.53;;;9.40;94.50;;;;;;5034031;28;20461;-71
2021/04/21 05:33:36;;;;;;;9.57;6.27;;;9.50;94.60;;;;;;5050746;28;20980;-71
2021/04/21 05:36:24;;;;;;;9.87;5.77;;;9.50;94.80;;;;;;5034801;28;20520;-70
2021/04/21 05:39:27;;;;;;;6.83;5.23;;;9.50;94.70;;;;;;5036884;28;20512;-71
2021/04/21 05:42:17;;;;;;;9.33;6.40;;;9.50;94.70;;;;;;5051027;28;20446;-71
2021/04/21 05:48:14;;;;;;;6.57;5.27;;;9.50;94.80;;;;;;5050670;28;20446;-71
2021/04/21 05:50:57;;;;;;;10.70;4.87;;;9.50;94.90;;;;;;5033385;28;20533;-71
2021/04/21 05:53:44;;;;;;;5.40;4.73;;;9.50;95.00;;;;;;5050067;28;20508;-71
2021/04/21 05:56:37;;;;;;;6.63;5.10;;;9.50;95.00;;;;;;5034311;28;21025;-71
2021/04/21 05:59:26;;;;;;;9.10;6.20;;;9.60;95.30;;;;;;5049863;28;20454;-71
2021/04/21 06:01:55;;;;;;;6.00;5.10;;;9.60;95.30;;;;;;5049712;28;20450;-71
2021/04/21 06:04:22;;;;;;;6.93;5.30;;;9.60;95.50;;;;;;5014366;28;20570;-71
2021/04/21 06:06:48;;;;;;;8.20;5.40;;;9.60;96.00;;;;;;5017724;28;20458;-71
2021/04/21 06:09:14;;;;;;;9.00;5.87;;;9.70;96.00;;;;;;5016841;28;20443;-71
2021/04/21 06:11:39;;;;;;;7.83;5.77;;;9.70;95.80;;;;;;5017793;28;20223;-71
2021/04/21 06:14:07;;;;;;;7.20;5.30;;;9.70;95.80;;;;;;5050669;28;20250;-71
2021/04/21 06:16:36;;;;;;;7.57;5.17;;;9.70;95.80;;;;;;5049260;28;20250;-72
2021/04/21 06:19:08;;;;;;;8.43;5.67;;;9.70;95.80;;;;;;5033613;28;20465;-71
2021/04/21 06:21:39;;;;;;;6.90;5.03;;;9.80;96.10;;;;;;5017129;28;20451;-71
2021/04/21 06:24:17;;;;;;;5.80;5.20;;;9.80;96.00;;;;;;5050042;28;20474;-71
2021/04/21 06:26:43;;;;;;;6.60;5.10;;;9.80;96.20;;;;;;5046975;28;20502;-74
2021/04/21 06:29:09;;;;;;;6.87;4.43;;;9.80;96.40;;;;;;5049984;28;20923;-71
2021/04/21 06:31:43;;;;;;;9.20;5.63;;;9.90;96.60;;;;;;5050088;28;20207;-71
2021/04/21 06:34:11;;;;;;;9.97;5.47;;;9.90;96.50;;;;;;5048321;28;20467;-71
2021/04/21 06:36:47;;;;;;;6.60;4.80;;;9.90;96.50;;;;;;5047998;28;20980;-71
2021/04/21 06:39:16;;;;;;;7.73;5.00;;;10.00;95.90;;;;;;5066085;28;20458;-71
2021/04/21 06:41:43;;;;;;;6.07;5.30;;;10.00;96.00;;;;;;5046232;28;20535;-71
2021/04/21 06:44:09;;;;;;;6.53;5.07;;;10.10;96.50;;;;;;5041805;28;20554;-71
2021/04/21 06:46:35;;;;;;;8.20;5.97;;;10.10;96.80;;;;;;5049672;28;20548;-71
2021/04/21 06:49:03;;;;;;;11.30;5.77;;;10.10;96.60;;;;;;5049450;28;20713;-71
2021/04/21 06:51:31;;;;;;;10.17;6.33;;;10.20;96.80;;;;;;5032265;28;20216;-71
2021/04/21 06:53:58;;;;;;;8.00;5.30;;;10.20;97.20;;;;;;5033616;28;20499;-71
2021/04/21 06:56:32;;;;;;;9.93;5.80;;;10.30;97.10;;;;;;5032970;28;20462;-71
2021/04/21 06:58:59;;;;;;;7.37;5.10;;;10.30;97.00;;;;;;5049443;28;20466;-71
2021/04/21 07:01:28;;;;;;;6.37;4.90;;;10.40;97.10;;;;;;5050916;28;20462;-72
2021/04/21 07:04:10;;;;;;;7.43;6.00;;;10.40;97.00;;;;;;5025889;28;20469;-71
2021/04/21 07:06:37;;;;;;;9.10;6.37;;;10.50;97.50;;;;;;5035159;28;20452;-71
2021/04/21 07:09:12;;;;;;;10.23;5.90;;;10.60;98.20;;;;;;5032305;28;20962;-72
2021/04/21 07:11:38;;;;;;;8.30;5.80;;;10.70;99.00;;;;;;5049556;28;20457;-71
2021/04/21 07:14:04;;;;;;;8.20;6.10;;;10.80;98.70;;;;;;5016680;28;20442;-71
2021/04/21 07:16:30;;;;;;;11.03;6.77;;;10.80;98.70;;;;;;5027539;28;20450;-71
2021/04/21 07:19:03;;;;;;;8.70;6.17;;;10.90;98.90;;;;;;5032547;28;20458;-72
2021/04/21 07:21:29;;;;;;;8.00;5.93;;;11.00;99.40;;;;;;5048832;28;20216;-71
2021/04/21 07:24:00;;;;;;;8.27;5.67;;;11.10;99.40;;;;;;5033444;28;20450;-71
2021/04/21 07:26:42;;;;;;;5.73;5.07;;;11.20;99.70;;;;;;5039783;28;20466;-72
2021/04/21 07:29:15;;;;;;;7.83;5.13;;;11.30;99.70;;;;;;5048911;28;20760;-71
2021/04/21 07:31:41;;;;;;;7.67;5.87;;;11.50;99.90;;;;;;5032902;28;20450;-71
2021/04/21 07:34:14;;;;;;;8.00;5.80;;;11.60;99.90;;;;;;5049070;28;20455;-71
2021/04/21 07:36:45;;;;;;;7.50;5.87;;;11.70;99.90;;;;;;5032107;28;20760;-73
2021/04/21 07:39:11;;;;;;;10.50;6.00;;;11.80;99.90;;;;;;5049814;28;20470;-72
2021/04/21 07:41:39;;;;;;;8.03;5.57;;;11.90;99.90;;;;;;5048344;28;20454;-69
2021/04/21 07:44:07;;;;;;;7.33;6.03;;;12.00;99.90;;;;;;5048821;28;20978;-69
2021/04/21 07:46:33;;;;;;;8.07;6.13;;;12.10;99.90;;;;;;5031975;28;20451;-70
2021/04/21 07:48:59;;;;;;;7.53;5.80;;;12.20;99.90;;;;;;5049956;28;20461;-70
2021/04/21 07:51:24;;;;;;;8.13;5.70;;;12.20;99.90;;;;;;5045314;28;20447;-70
2021/04/21 07:54:06;;;;;;;8.07;5.80;;;12.30;99.90;;;;;;5049145;28;20287;-70
2021/04/21 07:56:54;;;;;;;6.93;5.27;;;12.40;99.90;;;;;;5048656;28;21286;-69
2021/04/21 07:59:41;;;;;;;9.40;6.17;;;12.50;99.90;;;;;;5047363;28;20500;-69
2021/04/21 08:02:15;;;;;;;7.90;5.57;;;12.60;99.90;;;;;;5044688;28;20461;-69
2021/04/21 08:04:50;;;;;;;8.87;5.73;;;12.70;99.90;;;;;;5049816;28;20515;-70
2021/04/21 08:07:54;;;;;;;8.53;6.40;;;12.90;99.90;;;;;;5032749;28;20450;-69
2021/04/21 08:10:23;;;;;;;9.00;6.43;;;13.10;99.90;;;;;;5033313;28;20515;-69
2021/04/21 08:12:50;;;;;;;8.13;5.17;;;13.20;99.90;;;;;;5052929;28;20450;-70
2021/04/21 08:15:16;;;;;;;9.80;6.50;;;13.30;99.90;;;;;;5032229;28;20458;-69
2021/04/21 08:17:52;;;;;;;7.20;6.27;;;13.40;99.90;;;;;;5056230;28;20457;-69
2021/04/21 08:20:33;;;;;;;7.30;6.20;;;13.50;99.90;;;;;;5038166;28;20487;-69
2021/04/21 08:23:02;;;;;;;7.97;6.40;;;13.60;99.90;;;;;;5039348;28;20462;-69
2021/04/21 08:25:28;;;;;;;7.60;6.20;;;13.70;99.90;;;;;;5037917;28;20466;-70
2021/04/21 08:27:54;;;;;;;9.77;6.80;;;13.80;99.90;;;;;;5055168;28;20456;-69
2021/04/21 08:30:21;;;;;;;9.50;6.30;;;14.00;99.90;;;;;;5021836;28;20533;-69
2021/04/21 08:32:46;;;;;;;8.30;5.67;;;14.20;99.90;;;;;;5037626;28;20216;-69
2021/04/21 08:35:15;;;;;;;6.97;5.67;;;14.30;99.90;;;;;;5054690;28;20838;-70
2021/04/21 08:37:42;;;;;;;7.27;5.30;;;14.40;99.90;;;;;;5038498;28;20228;-69
2021/04/21 08:40:09;;;;;;;7.23;5.53;;;14.50;99.90;;;;;;5054819;28;20457;-69
2021/04/21 08:42:38;;;;;;;7.67;6.13;;;14.60;99.90;;;;;;5027474;28;20533;-69
2021/04/21 08:45:06;;;;;;;7.93;6.07;;;14.70;99.90;;;;;;5055300;28;20466;-69
2021/04/21 08:47:33;;;;;;;8.73;6.60;;;14.80;99.90;;;;;;5038046;28;20450;-69
2021/04/21 08:49:59;;;;;;;8.50;6.40;;;14.90;99.90;;;;;;5068845;28;20446;-70
2021/04/21 08:52:28;;;;;;;10.53;7.93;;;15.00;99.90;;;;;;5037653;28;20996;-71
2021/04/21 08:54:55;;;;;;;8.10;7.00;;;15.00;99.90;;;;;;5038000;28;20879;-69
2021/04/21 08:57:22;;;;;;;13.63;7.50;;;15.10;99.90;;;;;;5054249;28;20458;-69
2021/04/21 08:59:48;;;;;;;7.90;6.60;;;15.20;99.90;;;;;;5038197;28;20918;-69
2021/04/21 09:02:16;;;;;;;8.30;6.90;;;15.30;99.90;;;;;;5024401;28;20512;-69
2021/04/21 09:04:43;;;;;;;11.40;7.97;;;15.30;99.90;;;;;;5024089;28;20466;-69
2021/04/21 09:07:10;;;;;;;9.33;6.77;;;15.40;99.90;;;;;;5043580;28;21259;-69
2021/04/21 09:09:36;;;;;;;8.50;7.13;;;15.50;99.90;;;;;;5027591;28;20442;-69
2021/04/21 09:12:04;;;;;;;8.20;6.87;;;15.70;99.90;;;;;;5055133;28;20973;-69
2021/04/21 09:14:29;;;;;;;13.13;8.00;;;15.70;99.90;;;;;;5054201;28;20512;-69
2021/04/21 09:16:55;;;;;;;11.00;7.10;;;15.90;99.90;;;;;;5052607;28;20882;-69
2021/04/21 09:19:21;;;;;;;10.37;8.00;;;16.00;99.90;;;;;;5037395;28;20310;-69
2021/04/21 09:21:47;;;;;;;15.70;9.17;;;16.00;99.90;;;;;;5018344;28;21069;-69
2021/04/21 09:24:25;;;;;;;12.00;8.70;;;15.90;99.90;;;;;;5050854;28;20537;-69
2021/04/21 09:26:51;;;;;;;9.57;7.80;;;15.90;99.90;;;;;;5043910;28;20714;-69
2021/04/21 09:29:24;;;;;;;8.57;6.87;;;15.90;99.40;;;;;;5050864;28;20537;-69
2021/04/21 09:32:04;;;;;;;9.67;6.97;;;16.00;99.70;;;;;;5014181;28;20216;-70
2021/04/21 09:34:30;;;;;;;7.87;7.00;;;16.10;99.60;;;;;;5042387;28;20893;-69
2021/04/21 09:36:55;;;;;;;7.90;6.10;;;16.30;99.80;;;;;;5050835;28;20459;-69
2021/04/21 09:39:25;;;;;;;10.53;7.83;;;16.40;99.90;;;;;;5033551;28;20218;-69
2021/04/21 09:42:02;;;;;;;10.70;8.03;;;16.50;99.80;;;;;;5047960;28;20680;-71
2021/04/21 09:44:30;;;;;;;9.20;7.23;;;16.70;99.50;;;;;;5016311;28;20470;-71
2021/04/21 09:46:58;;;;;;;9.83;7.37;;;16.80;99.60;;;;;;5039527;28;20478;-71
2021/04/21 09:49:33;;;;;;;9.47;6.90;;;16.90;99.80;;;;;;5048381;28;20447;-69
2021/04/21 09:52:12;;;;;;;10.60;7.87;;;17.00;99.80;;;;;;5016929;28;20545;-69
2021/04/21 09:54:45;;;;;;;12.07;8.50;;;17.10;99.40;;;;;;5047884;28;20473;-69
2021/04/21 09:57:23;;;;;;;9.30;8.00;;;17.20;99.60;;;;;;5033827;28;20446;-69
2021/04/21 09:59:57;;;;;;;9.00;7.20;;;17.30;99.60;;;;;;5033329;28;20864;-69
2021/04/21 10:02:34;;;;;;;9.83;8.33;;;17.30;99.80;;;;;;5030331;28;20444;-68
2021/04/21 10:05:36;;;;;;;11.40;8.57;;;17.50;99.10;;;;;;5049232;28;20814;-68
2021/04/21 10:08:10;;;;;;;10.30;7.00;;;17.30;98.30;;;;;;5049614;28;20452;-68
2021/04/21 10:10:37;;;;;;;10.77;7.40;;;17.40;99.20;;;;;;5040642;28;20442;-69
2021/04/21 10:13:19;;;;;;;9.83;7.63;;;17.60;99.40;;;;;;5033230;28;20818;-68
2021/04/21 10:15:47;;;;;;;10.67;9.20;;;17.80;99.60;;;;;;5026979;28;21000;-68
2021/04/21 10:18:13;;;;;;;8.93;7.97;;;18.00;99.10;;;;;;5049066;28;20821;-69
2021/04/21 10:20:41;;;;;;;12.10;9.33;;;18.00;99.10;;;;;;5049238;28;20540;-68
2021/04/21 10:23:07;;;;;;;15.13;10.63;;;18.00;98.60;;;;;;5049028;28;20459;-69
2021/04/21 10:25:35;;;;;;;9.67;8.20;;;18.00;98.10;;;;;;5041754;28;20471;-68
2021/04/21 10:28:01;;;;;;;12.70;9.20;;;18.10;98.90;;;;;;5015699;28;20493;-68
2021/04/21 10:30:27;;;;;;;9.90;8.10;;;18.30;98.60;;;;;;5020358;28;20458;-68
2021/04/21 10:32:53;;;;;;;10.50;7.90;;;18.40;98.90;;;;;;5011630;28;20459;-69
2021/04/21 10:35:22;;;;;;;12.13;8.20;;;18.50;98.70;;;;;;5047592;28;20576;-72
2021/04/21 10:37:48;;;;;;;13.43;11.33;;;18.60;96.70;;;;;;5039163;28;20458;-69
2021/04/21 10:40:27;;;;;;;12.57;9.47;;;18.50;97.40;;;;;;5047514;28;20450;-69
2021/04/21 10:42:59;;;;;;;11.23;8.97;;;18.50;97.60;;;;;;5056738;28;20505;-72
2021/04/21 10:45:26;;;;;;;12.83;9.43;;;18.60;96.70;;;;;;5030918;28;20869;-68
2021/04/21 10:47:54;;;;;;;13.43;10.60;;;18.60;96.10;;;;;;5046255;28;20458;-68
2021/04/21 10:50:52;;;;;;;13.40;11.10;;;18.70;96.50;;;;;;5030161;28;20469;-68
2021/04/21 10:53:45;;;;;;;13.87;9.97;;;18.80;95.90;;;;;;4997204;28;20545;-69
2021/04/21 10:56:22;;;;;;;14.60;12.30;;;18.90;96.70;;;;;;5034468;28;20458;-71
2021/04/21 10:58:55;;;;;;;14.67;11.20;;;18.90;95.60;;;;;;5040472;28;20454;-71
2021/04/21 11:01:30;;;;;;;14.93;11.47;;;18.80;94.70;;;;;;5030667;28;20545;-70
2021/04/21 11:03:57;;;;;;;13.07;10.57;;;18.90;95.50;;;;;;5023559;28;20847;-71
2021/04/21 11:06:41;;;;;;;13.57;10.20;;;19.10;95.50;;;;;;5030456;28;20461;-68
2021/04/21 11:09:11;;;;;;;15.57;10.17;;;19.10;95.40;;;;;;5018883;28;20962;-69
2021/04/21 11:11:40;;;;;;;15.93;10.80;;;19.10;93.90;;;;;;5029365;28;20828;-68
2021/04/21 11:14:08;;;;;;;17.10;12.37;;;18.80;93.10;;;;;;4997139;28;20481;-68
2021/04/21 11:16:37;;;;;;;14.00;11.77;;;18.60;93.00;;;;;;4997070;28;20533;-69
2021/04/21 11:19:18;;;;;;;15.50;11.57;;;18.40;93.00;;;;;;5029804;28;20973;-68
2021/04/21 11:21:48;;;;;;;14.53;11.30;;;18.40;93.10;;;;;;5046168;28;20450;-69
2021/04/21 11:24:15;;;;;;;14.73;10.80;;;18.40;93.10;;;;;;5045005;28;20462;-68
2021/04/21 11:26:44;;;;;;;14.07;10.73;;;18.60;92.90;;;;;;5042193;28;20466;-68
2021/04/21 11:29:09;;;;;;;10.43;9.10;;;18.50;92.90;;;;;;5008441;28;20451;-70
2021/04/21 11:31:48;;;;;;;12.23;9.93;;;18.60;93.60;;;;;;5030006;28;20447;-68
2021/04/21 11:34:20;;;;;;;13.97;9.63;;;18.80;93.60;;;;;;5031246;28;20274;-68
2021/04/21 11:36:50;;;;;;;9.37;8.40;;;19.00;94.20;;;;;;5048855;28;20889;-68
2021/04/21 11:39:44;;;;;;;10.30;8.20;;;19.20;93.40;;;;;;5047612;28;20451;-69
2021/04/21 11:42:28;;;;;;;7.67;6.80;;;19.30;93.80;;;;;;5047578;28;20451;-68
2021/04/21 11:45:02;;;;;;;13.60;10.33;;;19.30;93.70;;;;;;5028066;28;20478;-69
2021/04/21 11:47:32;;;;;;;12.60;9.10;;;19.40;92.60;;;;;;5025691;28;20438;-68
2021/04/21 11:50:03;;;;;;;11.67;9.50;;;19.40;92.80;;;;;;5046944;28;21033;-68
2021/04/21 11:53:02;;;;;;;10.10;8.77;;;19.40;91.70;;;;;;5027664;28;20452;-69
2021/04/21 11:55:28;;;;;;;10.47;8.03;;;19.30;91.60;;;;;;4975345;28;20443;-69
2021/04/21 11:58:23;;;;;;;11.10;8.60;;;19.20;92.10;;;;;;5029126;28;20467;-68
2021/04/21 12:01:02;;;;;;;8.33;6.97;;;19.40;92.30;;;;;;5047069;28;20255;-68
2021/04/21 12:03:34;;;;;;;10.17;8.37;;;19.50;92.40;;;;;;5046263;28;20446;-68
2021/04/21 12:06:05;;;;;;;13.77;11.50;;;19.60;92.00;;;;;;5047992;28;20982;-68
2021/04/21 12:08:33;;;;;;;12.67;10.03;;;19.80;92.10;;;;;;5028816;28;20447;-68
2021/04/21 12:11:01;;;;;;;10.63;8.93;;;19.90;91.50;;;;;;5047268;28;20454;-68
2021/04/21 12:13:29;;;;;;;13.60;10.13;;;20.00;91.80;;;;;;5053594;28;20450;-68
2021/04/21 12:16:02;;;;;;;10.10;9.13;;;20.10;91.00;;;;;;5027827;28;20914;-68
2021/04/21 12:18:28;;;;;;;11.47;8.20;;;20.10;91.20;;;;;;5028540;28;20499;-71
2021/04/21 12:20:55;;;;;;;12.10;9.93;;;20.10;91.60;;;;;;5030234;28;20549;-71
2021/04/21 12:23:31;;;;;;;10.57;9.20;;;20.20;91.70;;;;;;5031085;28;20235;-71
2021/04/21 12:25:58;;;;;;;18.10;12.97;;;20.20;92.10;;;;;;5037559;28;20469;-71
2021/04/21 12:28:24;;;;;;;13.87;11.20;;;20.20;91.00;;;;;;5047170;28;20461;-71
2021/04/21 12:30:54;;;;;;;13.47;11.23;;;20.10;91.40;;;;;;5047526;28;20505;-72
2021/04/21 12:33:21;;;;;;;12.47;11.27;;;20.10;91.10;;;;;;5024552;28;20921;-71
2021/04/21 12:35:47;;;;;;;10.17;9.13;;;20.00;90.80;;;;;;5038931;28;20471;-72
2021/04/21 12:38:13;;;;;;;11.83;10.73;;;20.00;91.60;;;;;;5043043;28;21005;-72
2021/04/21 12:40:39;;;;;;;14.03;12.63;;;20.10;91.70;;;;;;5043106;28;20457;-71
2021/04/21 12:43:10;;;;;;;13.50;12.07;;;20.10;91.40;;;;;;5026226;28;20704;-72
2021/04/21 12:45:37;;;;;;;12.23;10.70;;;20.10;91.30;;;;;;5043174;28;20255;-71
2021/04/21 12:48:22;;;;;;;13.80;10.40;;;20.20;91.10;;;;;;5027194;28;20703;-71
2021/04/21 12:50:50;;;;;;;13.20;8.90;;;20.00;90.70;;;;;;5026962;28;20985;-70
2021/04/21 12:53:18;;;;;;;10.30;7.60;;;20.00;90.70;;;;;;5042441;28;20518;-71
2021/04/21 12:55:46;;;;;;;10.10;8.20;;;20.10;90.80;;;;;;5044163;28;20460;-71
2021/04/21 12:58:12;;;;;;;9.63;8.23;;;20.40;90.40;;;;;;5042594;28;20454;-71
2021/04/21 13:00:39;;;;;;;10.40;9.30;;;20.60;90.70;;;;;;5031506;28;20482;-72
2021/04/21 13:03:16;;;;;;;11.10;9.73;;;20.60;90.50;;;;;;5046857;28;20489;-70
2021/04/21 13:05:49;;;;;;;12.33;9.40;;;20.60;89.30;;;;;;5029748;28;20811;-70
2021/04/21 13:08:21;;;;;;;9.20;7.60;;;20.50;88.50;;;;;;5049286;28;20473;-69
2021/04/21 13:10:47;;;;;;;9.83;8.20;;;20.40;88.80;;;;;;5046638;28;20528;-69
2021/04/21 13:13:19;;;;;;;13.17;11.87;;;20.40;89.80;;;;;;5047074;28;20470;-70
2021/04/21 13:15:45;;;;;;;10.50;9.50;;;20.50;88.70;;;;;;5045679;28;20487;-70
2021/04/21 13:18:12;;;;;;;8.57;7.70;;;20.50;88.80;;;;;;5038712;28;20837;-69